sensor_id;sensor_type;location;lat;lon;timestamp;temperature;humidity
37242;DHT22;23135;51.078;12.108;2022-07-03T00:01:49;15.70;99.90
37242;DHT22;23135;51.078;12.108;2022-07-03T00:04:14;15.50;99.90
37242;DHT22;23135;51.078;12.108;2022-07-03T00:06:40;15.50;99.90
37242;DHT22;23135;51.078;12.108;2022-07-03T00:09:06;15.60;99.90
37242;DHT22;23135;51.078;12.108;2022-07-03T00:11:32;15.60;99.90
37242;DHT22;23135;51.078;12.108;2022-07-03T00:13:58;15.60;99.90
37242;DHT22;23135;51.078;12.108;2022-07-03T00:16:24;15.70;99.90
37242;DHT22;23135;51.078;12.108;2022-07-03T00:18:50;15.70;99.90
37242;DHT22;23135;51.078;12.108;2022-07-03T00:21:20;15.80;99.90
37242;DHT22;23135;51.078;12.108;2022-07-03T00:23:52;15.70;99.90
37242;DHT22;23135;51.078;12.108;2022-07-03T00:26:20;15.80;99.90
37242;DHT22;23135;51.078;12.108;2022-07-03T00:28:46;15.70;99.90
37242;DHT22;23135;51.078;12.108;2022-07-03T00:31:13;15.60;99.90
37242;DHT22;23135;51.078;12.108;2022-07-03T00:33:39;15.60;99.90
37242;DHT22;23135;51.078;12.108;2022-07-03T00:36:06;15.80;99.90
37242;DHT22;23135;51.078;12.108;2022-07-03T00:38:32;15.80;99.90
37242;DHT22;23135;51.078;12.108;2022-07-03T00:40:57;15.80;99.90
37242;DHT22;23135;51.078;12.108;2022-07-03T00:43:25;15.80;99.90
37242;DHT22;23135;51.078;12.108;2022-07-03T00:45:50;15.90;99.90
37242;DHT22;23135;51.078;12.108;2022-07-03T00:48:18;15.90;99.90
37242;DHT22;23135;51.078;12.108;2022-07-03T00:50:49;15.80;99.90
37242;DHT22;23135;51.078;12.108;2022-07-03T00:53:28;15.80;99.90
37242;DHT22;23135;51.078;12.108;2022-07-03T00:55:55;15.80;99.90
37242;DHT22;23135;51.078;12.108;2022-07-03T00:58:22;15.90;99.90
37242;DHT22;23135;51.078;12.108;2022-07-03T01:00:50;15.90;99.90
37242;DHT22;23135;51.078;12.108;2022-07-03T01:03:18;15.90;99.90
37242;DHT22;23135;51.078;12.108;2022-07-03T01:05:55;16.00;99.90
37242;DHT22;23135;51.078;12.108;2022-07-03T01:08:41;16.00;99.90
37242;DHT22;23135;51.078;12.108;2022-07-03T01:11:30;15.90;99.90
37242;DHT22;23135;51.078;12.108;2022-07-03T01:14:20;15.80;99.90
37242;DHT22;23135;51.078;12.108;2022-07-03T01:30:18;15.30;99.90
37242;DHT22;23135;51.078;12.108;2022-07-03T01:32:45;15.30;99.90
37242;DHT22;23135;51.078;12.108;2022-07-03T01:38:21;15.40;99.90
37242;DHT22;23135;51.078;12.108;2022-07-03T01:40:49;15.40;99.90
37242;DHT22;23135;51.078;12.108;2022-07-03T01:43:15;15.30;99.90
37242;DHT22;23135;51.078;12.108;2022-07-03T01:45:47;15.30;99.90
37242;DHT22;23135;51.078;12.108;2022-07-03T01:48:13;15.20;99.90
37242;DHT22;23135;51.078;12.108;2022-07-03T01:50:40;15.10;99.90
37242;DHT22;23135;51.078;12.108;2022-07-03T01:53:08;15.10;99.90
37242;DHT22;23135;51.078;12.108;2022-07-03T01:55:35;15.10;99.90
37242;DHT22;23135;51.078;12.108;2022-07-03T01:58:02;14.90;99.90
37242;DHT22;23135;51.078;12.108;2022-07-03T02:00:29;15.00;99.90
37242;DHT22;23135;51.078;12.108;2022-07-03T02:02:56;15.00;99.90
37242;DHT22;23135;51.078;12.108;2022-07-03T02:05:37;14.90;99.90
37242;DHT22;23135;51.078;12.108;2022-07-03T02:13:23;15.00;99.90
37242;DHT22;23135;51.078;12.108;2022-07-03T02:15:51;15.00;99.90
37242;DHT22;23135;51.078;12.108;2022-07-03T02:18:29;14.90;99.90
37242;DHT22;23135;51.078;12.108;2022-07-03T02:21:15;14.90;99.90
37242;DHT22;23135;51.078;12.108;2022-07-03T02:26:34;14.70;99.90
37242;DHT22;23135;51.078;12.108;2022-07-03T02:29:07;14.70;99.90
37242;DHT22;23135;51.078;12.108;2022-07-03T02:31:38;14.60;99.90
37242;DHT22;23135;51.078;12.108;2022-07-03T02:34:06;14.60;99.90
37242;DHT22;23135;51.078;12.108;2022-07-03T02:36:35;14.50;99.90
37242;DHT22;23135;51.078;12.108;2022-07-03T02:39:01;14.50;99.90
37242;DHT22;23135;51.078;12.108;2022-07-03T02:41:45;14.30;99.90
37242;DHT22;23135;51.078;12.108;2022-07-03T02:44:25;14.40;99.90
37242;DHT22;23135;51.078;12.108;2022-07-03T02:50:08;14.40;99.90
37242;DHT22;23135;51.078;12.108;2022-07-03T03:00:35;14.30;99.90
37242;DHT22;23135;51.078;12.108;2022-07-03T03:03:03;14.40;99.90
37242;DHT22;23135;51.078;12.108;2022-07-03T03:05:40;14.50;99.90
37242;DHT22;23135;51.078;12.108;2022-07-03T03:08:16;14.70;99.90
37242;DHT22;23135;51.078;12.108;2022-07-03T03:10:45;14.80;99.90
37242;DHT22;23135;51.078;12.108;2022-07-03T03:13:13;14.80;99.90
37242;DHT22;23135;51.078;12.108;2022-07-03T03:15:47;14.90;99.90
37242;DHT22;23135;51.078;12.108;2022-07-03T03:18:17;15.00;99.90
37242;DHT22;23135;51.078;12.108;2022-07-03T03:20:47;15.00;99.90
37242;DHT22;23135;51.078;12.108;2022-07-03T03:24:04;14.90;99.90
37242;DHT22;23135;51.078;12.108;2022-07-03T03:26:05;14.90;99.90
37242;DHT22;23135;51.078;12.108;2022-07-03T03:28:31;14.90;99.90
37242;DHT22;23135;51.078;12.108;2022-07-03T03:30:56;14.90;99.90
37242;DHT22;23135;51.078;12.108;2022-07-03T03:33:22;14.90;99.90
37242;DHT22;23135;51.078;12.108;2022-07-03T03:35:48;14.90;99.90
37242;DHT22;23135;51.078;12.108;2022-07-03T03:38:14;14.90;99.90
37242;DHT22;23135;51.078;12.108;2022-07-03T03:40:40;14.80;99.90
37242;DHT22;23135;51.078;12.108;2022-07-03T03:43:06;14.80;99.90
37242;DHT22;23135;51.078;12.108;2022-07-03T03:45:31;14.80;99.90
37242;DHT22;23135;51.078;12.108;2022-07-03T03:47:57;14.90;99.90
37242;DHT22;23135;51.078;12.108;2022-07-03T03:50:23;15.00;99.90
37242;DHT22;23135;51.078;12.108;2022-07-03T03:52:49;15.10;99.90
37242;DHT22;23135;51.078;12.108;2022-07-03T03:55:15;15.20;99.90
37242;DHT22;23135;51.078;12.108;2022-07-03T03:57:40;15.20;99.90
37242;DHT22;23135;51.078;12.108;2022-07-03T04:00:07;15.20;99.90
37242;DHT22;23135;51.078;12.108;2022-07-03T04:02:32;15.20;99.90
37242;DHT22;23135;51.078;12.108;2022-07-03T04:04:58;15.20;99.90
37242;DHT22;23135;51.078;12.108;2022-07-03T04:07:24;15.10;99.90
37242;DHT22;23135;51.078;12.108;2022-07-03T04:09:49;15.10;99.90
37242;DHT22;23135;51.078;12.108;2022-07-03T04:12:15;15.20;99.90
37242;DHT22;23135;51.078;12.108;2022-07-03T04:14:41;15.20;99.90
37242;DHT22;23135;51.078;12.108;2022-07-03T04:17:06;15.20;99.90
37242;DHT22;23135;51.078;12.108;2022-07-03T04:19:32;15.20;99.90
37242;DHT22;23135;51.078;12.108;2022-07-03T04:21:58;15.30;99.90
37242;DHT22;23135;51.078;12.108;2022-07-03T04:24:24;15.30;99.90
37242;DHT22;23135;51.078;12.108;2022-07-03T04:26:49;15.30;99.90
37242;DHT22;23135;51.078;12.108;2022-07-03T04:29:15;15.30;99.90
37242;DHT22;23135;51.078;12.108;2022-07-03T04:31:40;15.30;99.90
37242;DHT22;23135;51.078;12.108;2022-07-03T04:34:06;15.30;99.90
37242;DHT22;23135;51.078;12.108;2022-07-03T04:36:33;15.30;99.90
37242;DHT22;23135;51.078;12.108;2022-07-03T04:38:58;15.40;99.90
37242;DHT22;23135;51.078;12.108;2022-07-03T04:41:24;15.40;99.90
37242;DHT22;23135;51.078;12.108;2022-07-03T04:43:49;15.50;99.90
37242;DHT22;23135;51.078;12.108;2022-07-03T04:46:15;15.60;99.90
37242;DHT22;23135;51.078;12.108;2022-07-03T04:48:40;15.60;99.90
37242;DHT22;23135;51.078;12.108;2022-07-03T04:51:06;15.60;99.90
37242;DHT22;23135;51.078;12.108;2022-07-03T04:53:32;15.70;99.90
37242;DHT22;23135;51.078;12.108;2022-07-03T04:55:57;15.80;99.90
37242;DHT22;23135;51.078;12.108;2022-07-03T04:58:23;15.90;99.90
37242;DHT22;23135;51.078;12.108;2022-07-03T05:00:49;16.00;99.90
37242;DHT22;23135;51.078;12.108;2022-07-03T05:03:14;16.10;99.90
37242;DHT22;23135;51.078;12.108;2022-07-03T05:05:40;16.20;99.90
37242;DHT22;23135;51.078;12.108;2022-07-03T05:08:06;16.40;99.90
37242;DHT22;23135;51.078;12.108;2022-07-03T05:10:31;16.50;99.90
37242;DHT22;23135;51.078;12.108;2022-07-03T05:12:57;16.50;99.90
37242;DHT22;23135;51.078;12.108;2022-07-03T05:15:22;16.70;99.90
37242;DHT22;23135;51.078;12.108;2022-07-03T05:17:49;16.70;99.90
37242;DHT22;23135;51.078;12.108;2022-07-03T05:20:14;16.80;99.90
37242;DHT22;23135;51.078;12.108;2022-07-03T05:23:00;16.90;99.90
37242;DHT22;23135;51.078;12.108;2022-07-03T05:25:28;17.10;99.90
37242;DHT22;23135;51.078;12.108;2022-07-03T05:27:54;17.30;99.90
37242;DHT22;23135;51.078;12.108;2022-07-03T05:30:21;17.40;99.90
37242;DHT22;23135;51.078;12.108;2022-07-03T05:32:47;17.60;99.90
37242;DHT22;23135;51.078;12.108;2022-07-03T05:35:13;17.80;99.90
37242;DHT22;23135;51.078;12.108;2022-07-03T05:37:38;18.10;99.90
37242;DHT22;23135;51.078;12.108;2022-07-03T05:40:05;18.30;99.90
37242;DHT22;23135;51.078;12.108;2022-07-03T05:42:30;18.50;99.90
37242;DHT22;23135;51.078;12.108;2022-07-03T05:44:56;18.70;99.90
37242;DHT22;23135;51.078;12.108;2022-07-03T05:47:22;18.90;99.90
37242;DHT22;23135;51.078;12.108;2022-07-03T05:49:47;19.10;99.90
37242;DHT22;23135;51.078;12.108;2022-07-03T05:52:13;19.40;99.90
37242;DHT22;23135;51.078;12.108;2022-07-03T05:54:39;19.70;99.90
37242;DHT22;23135;51.078;12.108;2022-07-03T05:57:05;20.00;99.90
37242;DHT22;23135;51.078;12.108;2022-07-03T05:59:31;20.30;99.90
37242;DHT22;23135;51.078;12.108;2022-07-03T06:01:56;20.40;99.90
37242;DHT22;23135;51.078;12.108;2022-07-03T06:04:22;20.60;99.90
37242;DHT22;23135;51.078;12.108;2022-07-03T06:06:47;20.80;99.90
37242;DHT22;23135;51.078;12.108;2022-07-03T06:09:13;20.90;99.90
37242;DHT22;23135;51.078;12.108;2022-07-03T06:11:39;21.00;99.90
37242;DHT22;23135;51.078;12.108;2022-07-03T06:14:04;21.20;99.90
37242;DHT22;23135;51.078;12.108;2022-07-03T06:16:30;21.30;99.90
37242;DHT22;23135;51.078;12.108;2022-07-03T06:18:55;21.30;99.90
37242;DHT22;23135;51.078;12.108;2022-07-03T06:21:21;21.50;99.90
37242;DHT22;23135;51.078;12.108;2022-07-03T06:23:47;21.80;99.90
37242;DHT22;23135;51.078;12.108;2022-07-03T06:26:14;21.90;99.90
37242;DHT22;23135;51.078;12.108;2022-07-03T06:28:40;22.20;99.90
37242;DHT22;23135;51.078;12.108;2022-07-03T06:31:05;22.40;99.80
37242;DHT22;23135;51.078;12.108;2022-07-03T06:33:31;22.40;99.90
37242;DHT22;23135;51.078;12.108;2022-07-03T06:35:56;22.70;99.20
37242;DHT22;23135;51.078;12.108;2022-07-03T06:38:22;22.80;98.90
37242;DHT22;23135;51.078;12.108;2022-07-03T06:40:48;22.80;98.60
37242;DHT22;23135;51.078;12.108;2022-07-03T06:43:13;22.90;97.80
37242;DHT22;23135;51.078;12.108;2022-07-03T06:45:39;22.90;97.90
37242;DHT22;23135;51.078;12.108;2022-07-03T06:48:04;23.20;97.70
37242;DHT22;23135;51.078;12.108;2022-07-03T06:50:30;23.40;97.70
37242;DHT22;23135;51.078;12.108;2022-07-03T06:52:56;23.40;97.40
37242;DHT22;23135;51.078;12.108;2022-07-03T06:55:22;23.60;97.60
37242;DHT22;23135;51.078;12.108;2022-07-03T06:57:47;23.80;96.90
37242;DHT22;23135;51.078;12.108;2022-07-03T07:00:13;23.90;96.70
37242;DHT22;23135;51.078;12.108;2022-07-03T07:02:39;24.10;97.20
37242;DHT22;23135;51.078;12.108;2022-07-03T07:05:05;24.20;95.40
37242;DHT22;23135;51.078;12.108;2022-07-03T07:07:30;24.20;96.40
37242;DHT22;23135;51.078;12.108;2022-07-03T07:09:56;24.30;96.20
37242;DHT22;23135;51.078;12.108;2022-07-03T07:12:22;24.50;96.40
37242;DHT22;23135;51.078;12.108;2022-07-03T07:14:48;24.60;95.70
37242;DHT22;23135;51.078;12.108;2022-07-03T07:17:13;24.80;95.40
37242;DHT22;23135;51.078;12.108;2022-07-03T07:19:39;24.80;95.00
37242;DHT22;23135;51.078;12.108;2022-07-03T07:22:04;24.90;94.70
37242;DHT22;23135;51.078;12.108;2022-07-03T07:24:30;25.00;95.20
37242;DHT22;23135;51.078;12.108;2022-07-03T07:26:56;25.30;94.30
37242;DHT22;23135;51.078;12.108;2022-07-03T07:29:21;25.20;94.80
37242;DHT22;23135;51.078;12.108;2022-07-03T07:31:47;25.50;94.60
37242;DHT22;23135;51.078;12.108;2022-07-03T07:34:12;25.50;94.00
37242;DHT22;23135;51.078;12.108;2022-07-03T07:36:38;25.40;93.50
37242;DHT22;23135;51.078;12.108;2022-07-03T07:39:04;25.40;93.80
37242;DHT22;23135;51.078;12.108;2022-07-03T07:41:29;25.30;93.50
37242;DHT22;23135;51.078;12.108;2022-07-03T07:43:55;25.50;93.70
37242;DHT22;23135;51.078;12.108;2022-07-03T07:46:21;25.80;93.60
37242;DHT22;23135;51.078;12.108;2022-07-03T07:48:46;25.80;93.00
37242;DHT22;23135;51.078;12.108;2022-07-03T07:51:12;25.80;93.00
37242;DHT22;23135;51.078;12.108;2022-07-03T07:53:37;25.90;92.40
37242;DHT22;23135;51.078;12.108;2022-07-03T07:56:03;26.00;92.30
37242;DHT22;23135;51.078;12.108;2022-07-03T07:58:29;26.00;92.60
37242;DHT22;23135;51.078;12.108;2022-07-03T08:00:54;26.10;92.30
37242;DHT22;23135;51.078;12.108;2022-07-03T08:03:38;26.30;91.90
37242;DHT22;23135;51.078;12.108;2022-07-03T08:06:23;26.60;92.50
37242;DHT22;23135;51.078;12.108;2022-07-03T08:08:48;27.00;91.70
37242;DHT22;23135;51.078;12.108;2022-07-03T08:11:14;27.10;91.30
37242;DHT22;23135;51.078;12.108;2022-07-03T08:13:39;27.10;90.70
37242;DHT22;23135;51.078;12.108;2022-07-03T08:16:05;27.20;90.60
37242;DHT22;23135;51.078;12.108;2022-07-03T08:18:31;27.10;90.50
37242;DHT22;23135;51.078;12.108;2022-07-03T08:20:57;27.20;90.10
37242;DHT22;23135;51.078;12.108;2022-07-03T08:23:22;27.40;90.10
37242;DHT22;23135;51.078;12.108;2022-07-03T08:25:48;27.70;89.50
37242;DHT22;23135;51.078;12.108;2022-07-03T08:28:13;27.80;88.30
37242;DHT22;23135;51.078;12.108;2022-07-03T08:30:39;27.80;86.40
37242;DHT22;23135;51.078;12.108;2022-07-03T08:33:04;28.00;84.40
37242;DHT22;23135;51.078;12.108;2022-07-03T08:35:30;28.20;85.00
37242;DHT22;23135;51.078;12.108;2022-07-03T08:37:56;28.10;85.90
37242;DHT22;23135;51.078;12.108;2022-07-03T08:40:21;28.50;84.50
37242;DHT22;23135;51.078;12.108;2022-07-03T08:42:56;28.60;81.60
37242;DHT22;23135;51.078;12.108;2022-07-03T08:45:24;28.40;83.10
37242;DHT22;23135;51.078;12.108;2022-07-03T08:47:51;28.40;82.50
37242;DHT22;23135;51.078;12.108;2022-07-03T08:50:19;28.40;81.40
37242;DHT22;23135;51.078;12.108;2022-07-03T08:52:45;28.50;80.30
37242;DHT22;23135;51.078;12.108;2022-07-03T08:55:12;28.80;79.90
37242;DHT22;23135;51.078;12.108;2022-07-03T08:57:42;29.10;80.40
37242;DHT22;23135;51.078;12.108;2022-07-03T09:00:11;29.00;77.50
37242;DHT22;23135;51.078;12.108;2022-07-03T09:02:39;29.20;76.00
37242;DHT22;23135;51.078;12.108;2022-07-03T09:05:07;29.10;76.20
37242;DHT22;23135;51.078;12.108;2022-07-03T09:07:38;29.30;76.60
37242;DHT22;23135;51.078;12.108;2022-07-03T09:10:06;29.50;75.50
37242;DHT22;23135;51.078;12.108;2022-07-03T09:12:33;29.40;75.90
37242;DHT22;23135;51.078;12.108;2022-07-03T09:14:59;29.60;74.70
37242;DHT22;23135;51.078;12.108;2022-07-03T09:17:26;29.60;74.60
37242;DHT22;23135;51.078;12.108;2022-07-03T09:19:52;29.50;73.00
37242;DHT22;23135;51.078;12.108;2022-07-03T09:22:28;29.80;75.80
37242;DHT22;23135;51.078;12.108;2022-07-03T09:27:28;30.20;72.00
37242;DHT22;23135;51.078;12.108;2022-07-03T09:32:50;30.10;71.70
37242;DHT22;23135;51.078;12.108;2022-07-03T09:35:17;30.00;71.30
37242;DHT22;23135;51.078;12.108;2022-07-03T09:37:58;29.90;69.70
37242;DHT22;23135;51.078;12.108;2022-07-03T09:40:25;30.00;71.20
37242;DHT22;23135;51.078;12.108;2022-07-03T09:43:05;30.20;72.30
37242;DHT22;23135;51.078;12.108;2022-07-03T09:45:52;30.60;70.90
37242;DHT22;23135;51.078;12.108;2022-07-03T09:48:26;30.60;70.60
37242;DHT22;23135;51.078;12.108;2022-07-03T09:54:00;30.30;67.90
37242;DHT22;23135;51.078;12.108;2022-07-03T09:56:35;30.40;68.60
37242;DHT22;23135;51.078;12.108;2022-07-03T09:59:08;30.30;68.80
37242;DHT22;23135;51.078;12.108;2022-07-03T10:01:42;29.90;69.70
37242;DHT22;23135;51.078;12.108;2022-07-03T10:04:15;29.80;67.20
37242;DHT22;23135;51.078;12.108;2022-07-03T10:06:56;29.20;67.80
37242;DHT22;23135;51.078;12.108;2022-07-03T10:09:24;28.70;70.60
37242;DHT22;23135;51.078;12.108;2022-07-03T10:11:50;28.60;69.80
37242;DHT22;23135;51.078;12.108;2022-07-03T10:14:18;29.20;70.30
37242;DHT22;23135;51.078;12.108;2022-07-03T10:16:45;29.40;69.10
37242;DHT22;23135;51.078;12.108;2022-07-03T10:19:14;29.80;68.20
37242;DHT22;23135;51.078;12.108;2022-07-03T10:21:42;30.30;67.10
37242;DHT22;23135;51.078;12.108;2022-07-03T10:24:08;30.00;65.80
37242;DHT22;23135;51.078;12.108;2022-07-03T10:26:34;30.00;65.30
37242;DHT22;23135;51.078;12.108;2022-07-03T10:29:01;30.00;66.60
37242;DHT22;23135;51.078;12.108;2022-07-03T10:31:28;30.20;66.30
37242;DHT22;23135;51.078;12.108;2022-07-03T10:33:53;30.40;67.30
37242;DHT22;23135;51.078;12.108;2022-07-03T10:36:20;30.50;64.30
37242;DHT22;23135;51.078;12.108;2022-07-03T10:38:48;30.30;64.20
37242;DHT22;23135;51.078;12.108;2022-07-03T10:41:26;30.30;64.40
37242;DHT22;23135;51.078;12.108;2022-07-03T10:44:13;30.40;63.90
37242;DHT22;23135;51.078;12.108;2022-07-03T10:46:57;30.80;65.20
37242;DHT22;23135;51.078;12.108;2022-07-03T10:49:23;31.00;64.00
37242;DHT22;23135;51.078;12.108;2022-07-03T10:51:57;31.10;63.40
37242;DHT22;23135;51.078;12.108;2022-07-03T10:54:27;31.10;63.70
37242;DHT22;23135;51.078;12.108;2022-07-03T11:07:32;31.70;60.70
37242;DHT22;23135;51.078;12.108;2022-07-03T11:15:52;32.50;62.60
37242;DHT22;23135;51.078;12.108;2022-07-03T11:25:53;32.10;61.10
37242;DHT22;23135;51.078;12.108;2022-07-03T11:41:48;32.60;59.50
37242;DHT22;23135;51.078;12.108;2022-07-03T11:44:19;32.40;59.40
37242;DHT22;23135;51.078;12.108;2022-07-03T11:46:50;32.60;60.10
37242;DHT22;23135;51.078;12.108;2022-07-03T11:49:18;32.80;58.90
37242;DHT22;23135;51.078;12.108;2022-07-03T11:52:01;33.00;59.20
37242;DHT22;23135;51.078;12.108;2022-07-03T11:54:49;33.40;60.60
37242;DHT22;23135;51.078;12.108;2022-07-03T11:57:14;33.60;59.70
37242;DHT22;23135;51.078;12.108;2022-07-03T11:59:40;33.60;58.40
37242;DHT22;23135;51.078;12.108;2022-07-03T12:02:06;33.40;58.90
37242;DHT22;23135;51.078;12.108;2022-07-03T12:04:31;33.00;59.40
37242;DHT22;23135;51.078;12.108;2022-07-03T12:06:59;32.90;59.70
37242;DHT22;23135;51.078;12.108;2022-07-03T12:09:29;33.10;59.70
37242;DHT22;23135;51.078;12.108;2022-07-03T12:12:08;33.30;59.10
37242;DHT22;23135;51.078;12.108;2022-07-03T12:14:46;33.10;58.50
37242;DHT22;23135;51.078;12.108;2022-07-03T12:17:15;33.10;58.60
37242;DHT22;23135;51.078;12.108;2022-07-03T12:19:52;33.40;59.30
37242;DHT22;23135;51.078;12.108;2022-07-03T12:22:37;33.50;60.00
37242;DHT22;23135;51.078;12.108;2022-07-03T12:25:10;33.40;59.50
37242;DHT22;23135;51.078;12.108;2022-07-03T12:27:41;33.50;60.00
37242;DHT22;23135;51.078;12.108;2022-07-03T12:30:08;33.20;58.80
37242;DHT22;23135;51.078;12.108;2022-07-03T12:32:34;33.60;60.80
37242;DHT22;23135;51.078;12.108;2022-07-03T12:35:00;33.70;59.30
37242;DHT22;23135;51.078;12.108;2022-07-03T12:37:37;33.80;57.60
37242;DHT22;23135;51.078;12.108;2022-07-03T12:40:07;33.00;58.90
37242;DHT22;23135;51.078;12.108;2022-07-03T12:42:43;32.30;59.30
37242;DHT22;23135;51.078;12.108;2022-07-03T12:45:12;31.40;59.90
37242;DHT22;23135;51.078;12.108;2022-07-03T12:47:38;31.50;60.60
37242;DHT22;23135;51.078;12.108;2022-07-03T12:50:05;32.40;60.10
37242;DHT22;23135;51.078;12.108;2022-07-03T12:52:33;32.90;59.20
37242;DHT22;23135;51.078;12.108;2022-07-03T12:55:00;33.10;58.40
37242;DHT22;23135;51.078;12.108;2022-07-03T12:57:27;33.00;58.30
37242;DHT22;23135;51.078;12.108;2022-07-03T13:00:16;33.20;58.50
37242;DHT22;23135;51.078;12.108;2022-07-03T13:02:44;32.80;58.70
37242;DHT22;23135;51.078;12.108;2022-07-03T13:05:18;32.40;59.50
37242;DHT22;23135;51.078;12.108;2022-07-03T13:07:47;33.00;59.70
37242;DHT22;23135;51.078;12.108;2022-07-03T13:10:18;33.10;60.10
37242;DHT22;23135;51.078;12.108;2022-07-03T13:12:52;32.70;59.90
37242;DHT22;23135;51.078;12.108;2022-07-03T13:15:20;32.10;61.80
37242;DHT22;23135;51.078;12.108;2022-07-03T13:22:53;30.80;60.80
37242;DHT22;23135;51.078;12.108;2022-07-03T13:25:20;31.00;60.00
37242;DHT22;23135;51.078;12.108;2022-07-03T13:27:46;31.20;62.10
37242;DHT22;23135;51.078;12.108;2022-07-03T13:30:13;31.20;61.10
37242;DHT22;23135;51.078;12.108;2022-07-03T13:32:38;31.50;60.50
37242;DHT22;23135;51.078;12.108;2022-07-03T13:35:05;31.50;61.00
37242;DHT22;23135;51.078;12.108;2022-07-03T13:37:31;31.10;60.70
37242;DHT22;23135;51.078;12.108;2022-07-03T13:39:56;31.00;61.20
37242;DHT22;23135;51.078;12.108;2022-07-03T13:42:22;31.10;62.50
37242;DHT22;23135;51.078;12.108;2022-07-03T13:44:47;31.30;61.30
37242;DHT22;23135;51.078;12.108;2022-07-03T13:47:15;31.60;61.70
37242;DHT22;23135;51.078;12.108;2022-07-03T13:49:41;32.10;61.20
37242;DHT22;23135;51.078;12.108;2022-07-03T13:52:07;32.60;59.00
37242;DHT22;23135;51.078;12.108;2022-07-03T13:54:32;32.60;60.40
37242;DHT22;23135;51.078;12.108;2022-07-03T13:56:58;33.40;59.60
37242;DHT22;23135;51.078;12.108;2022-07-03T13:59:23;33.60;59.70
37242;DHT22;23135;51.078;12.108;2022-07-03T14:01:49;33.80;59.30
37242;DHT22;23135;51.078;12.108;2022-07-03T14:04:14;33.90;57.70
37242;DHT22;23135;51.078;12.108;2022-07-03T14:06:40;33.40;57.70
37242;DHT22;23135;51.078;12.108;2022-07-03T14:09:06;33.10;57.60
37242;DHT22;23135;51.078;12.108;2022-07-03T14:11:31;33.30;59.20
37242;DHT22;23135;51.078;12.108;2022-07-03T14:13:57;33.60;58.00
37242;DHT22;23135;51.078;12.108;2022-07-03T14:16:23;33.00;58.00
37242;DHT22;23135;51.078;12.108;2022-07-03T14:18:48;33.20;58.10
37242;DHT22;23135;51.078;12.108;2022-07-03T14:21:14;33.50;57.20
37242;DHT22;23135;51.078;12.108;2022-07-03T14:23:40;34.00;57.30
37242;DHT22;23135;51.078;12.108;2022-07-03T14:26:05;34.00;56.80
37242;DHT22;23135;51.078;12.108;2022-07-03T14:28:31;34.20;56.80
37242;DHT22;23135;51.078;12.108;2022-07-03T14:31:15;34.00;55.70
37242;DHT22;23135;51.078;12.108;2022-07-03T14:33:53;33.80;55.10
37242;DHT22;23135;51.078;12.108;2022-07-03T14:36:19;33.50;56.30
37242;DHT22;23135;51.078;12.108;2022-07-03T14:38:45;33.40;56.40
37242;DHT22;23135;51.078;12.108;2022-07-03T14:41:11;33.30;56.40
37242;DHT22;23135;51.078;12.108;2022-07-03T14:43:37;33.30;57.70
37242;DHT22;23135;51.078;12.108;2022-07-03T14:46:02;33.20;56.60
37242;DHT22;23135;51.078;12.108;2022-07-03T14:48:28;33.00;57.30
37242;DHT22;23135;51.078;12.108;2022-07-03T14:50:53;32.90;57.90
37242;DHT22;23135;51.078;12.108;2022-07-03T14:53:20;32.50;56.20
37242;DHT22;23135;51.078;12.108;2022-07-03T14:55:46;31.90;58.10
37242;DHT22;23135;51.078;12.108;2022-07-03T14:58:26;31.80;56.90
37242;DHT22;23135;51.078;12.108;2022-07-03T15:00:54;31.70;57.70
37242;DHT22;23135;51.078;12.108;2022-07-03T15:03:31;31.70;58.70
37242;DHT22;23135;51.078;12.108;2022-07-03T15:05:59;31.50;60.00
37242;DHT22;23135;51.078;12.108;2022-07-03T15:11:06;31.40;60.30
37242;DHT22;23135;51.078;12.108;2022-07-03T15:13:35;31.20;59.80
37242;DHT22;23135;51.078;12.108;2022-07-03T15:16:01;31.20;59.90
37242;DHT22;23135;51.078;12.108;2022-07-03T15:18:28;31.20;59.10
37242;DHT22;23135;51.078;12.108;2022-07-03T15:20:54;31.10;59.50
37242;DHT22;23135;51.078;12.108;2022-07-03T15:23:20;31.00;59.20
37242;DHT22;23135;51.078;12.108;2022-07-03T15:25:47;30.90;58.50
37242;DHT22;23135;51.078;12.108;2022-07-03T15:28:15;30.90;59.40
37242;DHT22;23135;51.078;12.108;2022-07-03T15:30:52;30.90;58.30
37242;DHT22;23135;51.078;12.108;2022-07-03T15:33:19;30.80;59.00
37242;DHT22;23135;51.078;12.108;2022-07-03T15:35:48;30.80;58.40
37242;DHT22;23135;51.078;12.108;2022-07-03T15:38:20;30.90;59.30
37242;DHT22;23135;51.078;12.108;2022-07-03T15:40:53;30.80;59.80
37242;DHT22;23135;51.078;12.108;2022-07-03T15:46:23;30.80;58.40
37242;DHT22;23135;51.078;12.108;2022-07-03T15:49:19;30.90;59.50
37242;DHT22;23135;51.078;12.108;2022-07-03T15:54:51;31.00;59.70
37242;DHT22;23135;51.078;12.108;2022-07-03T15:57:26;30.90;59.20
37242;DHT22;23135;51.078;12.108;2022-07-03T16:00:03;30.90;58.90
37242;DHT22;23135;51.078;12.108;2022-07-03T16:02:38;30.80;59.10
37242;DHT22;23135;51.078;12.108;2022-07-03T16:05:21;30.90;59.10
37242;DHT22;23135;51.078;12.108;2022-07-03T16:07:52;30.90;59.70
37242;DHT22;23135;51.078;12.108;2022-07-03T16:10:18;30.90;58.80
37242;DHT22;23135;51.078;12.108;2022-07-03T16:12:46;30.80;58.40
37242;DHT22;23135;51.078;12.108;2022-07-03T16:15:14;30.70;58.60
37242;DHT22;23135;51.078;12.108;2022-07-03T16:17:40;30.80;59.20
37242;DHT22;23135;51.078;12.108;2022-07-03T16:20:07;30.80;59.50
37242;DHT22;23135;51.078;12.108;2022-07-03T16:22:35;30.70;59.40
37242;DHT22;23135;51.078;12.108;2022-07-03T16:25:03;30.60;60.00
37242;DHT22;23135;51.078;12.108;2022-07-03T16:27:29;30.50;60.00
37242;DHT22;23135;51.078;12.108;2022-07-03T16:29:56;30.50;59.60
37242;DHT22;23135;51.078;12.108;2022-07-03T16:32:27;30.30;60.00
37242;DHT22;23135;51.078;12.108;2022-07-03T16:40:11;30.50;60.20
37242;DHT22;23135;51.078;12.108;2022-07-03T16:42:42;30.50;60.40
37242;DHT22;23135;51.078;12.108;2022-07-03T16:45:08;30.20;58.80
37242;DHT22;23135;51.078;12.108;2022-07-03T16:47:42;30.00;59.40
37242;DHT22;23135;51.078;12.108;2022-07-03T16:50:17;29.90;60.00
37242;DHT22;23135;51.078;12.108;2022-07-03T16:52:48;29.70;61.60
37242;DHT22;23135;51.078;12.108;2022-07-03T16:55:14;29.50;61.20
37242;DHT22;23135;51.078;12.108;2022-07-03T16:57:46;29.40;60.60
37242;DHT22;23135;51.078;12.108;2022-07-03T17:00:18;29.30;60.90
37242;DHT22;23135;51.078;12.108;2022-07-03T17:02:44;29.30;61.60
37242;DHT22;23135;51.078;12.108;2022-07-03T17:05:12;29.40;62.60